createdAt,value
2022-10-17T00:00:11.485Z,17.29
2022-10-17T00:02:39.062Z,17.25
2022-10-17T00:05:06.964Z,17.30
2022-10-17T00:07:34.660Z,17.24
2022-10-17T00:10:02.308Z,17.22
2022-10-17T00:12:29.925Z,17.26
2022-10-17T00:14:58.837Z,17.23
2022-10-17T00:17:26.805Z,17.36
2022-10-17T00:19:54.586Z,17.41
2022-10-17T00:22:22.193Z,17.30
2022-10-17T00:24:49.737Z,17.21
2022-10-17T00:27:17.347Z,17.14
2022-10-17T00:29:49.247Z,17.13
2022-10-17T00:32:18.688Z,17.09
2022-10-17T00:34:46.552Z,17.17
2022-10-17T00:37:14.128Z,17.08
2022-10-17T00:39:41.713Z,17.08
2022-10-17T00:42:11.815Z,17.01
2022-10-17T00:45:00.570Z,16.95
2022-10-17T00:47:30.404Z,16.91
2022-10-17T00:49:58.534Z,16.89
2022-10-17T00:52:29.563Z,16.84
2022-10-17T00:55:01.397Z,16.85
2022-10-17T00:57:31.793Z,16.84
2022-10-17T01:00:01.637Z,16.88
2022-10-17T01:02:30.845Z,17.32
2022-10-17T01:05:00.440Z,17.56
2022-10-17T01:07:33.285Z,17.72
2022-10-17T01:10:05.653Z,17.69
2022-10-17T01:12:42.688Z,17.75
2022-10-17T01:15:15.488Z,17.75
2022-10-17T01:17:56.545Z,17.47
2022-10-17T01:20:56.066Z,17.13
2022-10-17T01:23:34.915Z,16.97
2022-10-17T01:26:09.282Z,17.01
2022-10-17T01:29:14.736Z,17.00
2022-10-17T01:31:47.630Z,17.14
2022-10-17T01:34:20.515Z,17.53
2022-10-17T01:36:54.311Z,17.77
2022-10-17T01:39:31.795Z,17.76
2022-10-17T01:42:07.309Z,17.75
2022-10-17T01:44:41.598Z,17.54
2022-10-17T01:47:14.667Z,17.39
2022-10-17T01:49:45.917Z,17.20
2022-10-17T01:52:18.078Z,17.01
2022-10-17T01:54:48.919Z,17.04
2022-10-17T01:57:22.845Z,17.46
2022-10-17T01:59:53.673Z,17.55
2022-10-17T02:02:24.241Z,17.35
2022-10-17T02:04:53.573Z,17.19
2022-10-17T02:07:21.207Z,17.09
2022-10-17T02:09:48.890Z,17.01
2022-10-17T02:12:34.774Z,17.05
2022-10-17T02:15:26.243Z,17.00
2022-10-17T02:18:05.089Z,16.92
2022-10-17T02:20:41.908Z,16.96
2022-10-17T02:23:14.849Z,17.10
2022-10-17T02:25:47.221Z,17.31
2022-10-17T02:28:22.062Z,17.48
2022-10-17T02:30:55.165Z,17.29
2022-10-17T02:33:28.850Z,17.02
2022-10-17T02:36:02.135Z,16.83
2022-10-17T02:38:30.712Z,16.87
2022-10-17T02:40:58.819Z,17.00
2022-10-17T02:43:26.685Z,17.15
2022-10-17T02:45:54.406Z,17.09
2022-10-17T02:48:31.859Z,17.02
2022-10-17T02:51:06.591Z,16.78
2022-10-17T02:53:41.421Z,16.76
2022-10-17T02:56:17.556Z,16.89
2022-10-17T02:58:48.552Z,16.78
2022-10-17T03:01:18.235Z,16.71
2022-10-17T03:03:47.344Z,16.83
2022-10-17T03:06:15.189Z,16.76
2022-10-17T03:08:42.810Z,16.72
2022-10-17T03:11:10.422Z,16.51
2022-10-17T03:13:39.826Z,16.31
2022-10-17T03:16:07.873Z,16.22
2022-10-17T03:18:35.476Z,16.08
2022-10-17T03:21:04.530Z,16.03
2022-10-17T03:23:32.126Z,15.97
2022-10-17T03:25:59.735Z,16.14
2022-10-17T03:28:27.823Z,16.20
2022-10-17T03:30:55.413Z,16.21
2022-10-17T03:33:23.369Z,16.12
2022-10-17T03:35:50.932Z,16.05
2022-10-17T03:38:19.875Z,15.97
2022-10-17T03:40:56.095Z,15.91
2022-10-17T03:43:23.650Z,16.07
2022-10-17T03:45:51.302Z,16.06
2022-10-17T03:48:18.934Z,16.00
2022-10-17T03:50:46.750Z,15.87
2022-10-17T03:53:14.666Z,15.97
2022-10-17T03:55:43.593Z,15.87
2022-10-17T03:58:11.170Z,16.16
2022-10-17T04:00:38.755Z,16.13
2022-10-17T04:03:06.370Z,15.93
2022-10-17T04:05:33.909Z,15.82
2022-10-17T04:08:03.991Z,15.71
2022-10-17T04:10:32.497Z,15.66
2022-10-17T04:13:01.413Z,15.59
2022-10-17T04:15:29.038Z,15.53
2022-10-17T04:17:56.648Z,15.51
2022-10-17T04:20:24.269Z,15.50
2022-10-17T04:22:51.830Z,16.05
2022-10-17T04:25:19.463Z,16.20
2022-10-17T04:27:47.012Z,16.27
2022-10-17T04:30:16.118Z,16.34
2022-10-17T04:32:43.714Z,16.19
2022-10-17T04:35:11.301Z,15.99
2022-10-17T04:37:38.845Z,15.81
2022-10-17T04:40:07.593Z,15.69
2022-10-17T04:42:35.194Z,15.60
2022-10-17T04:45:02.792Z,15.52
2022-10-17T04:47:32.130Z,15.52
2022-10-17T04:49:59.742Z,15.46
2022-10-17T04:52:27.812Z,15.43
2022-10-17T04:54:55.687Z,15.41
2022-10-17T04:57:23.767Z,15.44
2022-10-17T04:59:51.343Z,15.44
2022-10-17T05:02:19.029Z,15.38
2022-10-17T05:04:47.985Z,15.34
2022-10-17T05:07:15.568Z,15.44
2022-10-17T05:09:43.149Z,15.44
2022-10-17T05:12:10.685Z,15.51
2022-10-17T05:14:38.324Z,15.41
2022-10-17T05:17:05.893Z,15.37
2022-10-17T05:19:33.478Z,15.37
2022-10-17T05:22:02.614Z,15.37
2022-10-17T05:24:30.274Z,15.32
2022-10-17T05:26:57.829Z,15.25
2022-10-17T05:29:25.420Z,15.21
2022-10-17T05:31:53.053Z,15.29
2022-10-17T05:34:20.778Z,15.32
2022-10-17T05:36:48.463Z,15.26
2022-10-17T05:39:19.600Z,15.30
2022-10-17T05:41:47.410Z,15.30
2022-10-17T05:44:15.017Z,15.27
2022-10-17T05:46:42.611Z,15.29
2022-10-17T05:49:15.064Z,15.24
2022-10-17T05:51:58.278Z,15.17
2022-10-17T05:54:28.080Z,15.16
2022-10-17T05:56:56.479Z,15.14
2022-10-17T05:59:25.800Z,15.17
2022-10-17T06:01:53.789Z,15.15
2022-10-17T06:04:21.389Z,15.17
2022-10-17T06:06:48.947Z,15.17
2022-10-17T06:09:16.810Z,15.19
2022-10-17T06:11:45.748Z,15.20
2022-10-17T06:14:13.710Z,15.22
2022-10-17T06:16:41.571Z,15.20
2022-10-17T06:19:09.134Z,15.20
2022-10-17T06:21:38.597Z,15.20
2022-10-17T06:24:06.648Z,15.22
2022-10-17T06:26:34.613Z,15.29
2022-10-17T06:29:03.619Z,15.42
2022-10-17T06:31:31.458Z,15.60
2022-10-17T06:33:59.350Z,15.69
2022-10-17T06:36:26.944Z,15.87
2022-10-17T06:38:54.583Z,15.98
2022-10-17T06:41:22.283Z,16.24
2022-10-17T06:43:49.966Z,16.50
2022-10-17T06:46:20.341Z,16.24
2022-10-17T06:48:47.980Z,16.04
2022-10-17T06:51:15.569Z,15.90
2022-10-17T06:53:43.173Z,15.85
2022-10-17T06:56:11.299Z,16.25
2022-10-17T06:58:40.769Z,16.40
2022-10-17T07:01:10.000Z,16.73
2022-10-17T07:03:39.226Z,16.77
2022-10-17T07:06:07.240Z,16.71
2022-10-17T07:08:34.857Z,16.81
2022-10-17T07:11:10.582Z,16.79
2022-10-17T07:13:39.323Z,16.93
2022-10-17T07:16:07.935Z,16.95
2022-10-17T07:18:35.556Z,16.92
2022-10-17T07:21:04.961Z,16.83
2022-10-17T07:23:34.278Z,16.92
2022-10-17T07:26:02.543Z,16.95
2022-10-17T07:28:30.266Z,16.99
2022-10-17T07:30:57.820Z,17.11
2022-10-17T07:33:25.455Z,17.01
2022-10-17T07:35:53.228Z,17.01
2022-10-17T07:38:22.279Z,17.09
2022-10-17T07:40:55.793Z,17.08
2022-10-17T07:43:23.816Z,17.10
2022-10-17T07:45:51.890Z,17.03
2022-10-17T07:48:20.601Z,17.02
2022-10-17T07:50:48.248Z,17.02
2022-10-17T07:53:16.258Z,17.15
2022-10-17T07:55:46.387Z,17.27
2022-10-17T07:58:15.056Z,17.29
2022-10-17T08:00:43.060Z,17.29
2022-10-17T08:03:11.848Z,17.17
2022-10-17T08:05:39.427Z,17.18
2022-10-17T08:08:07.090Z,17.15
2022-10-17T08:10:34.791Z,17.20
2022-10-17T08:13:04.085Z,17.21
2022-10-17T08:15:32.154Z,17.10
2022-10-17T08:18:00.540Z,17.24
2022-10-17T08:20:28.261Z,17.59
2022-10-17T08:22:56.478Z,17.74
2022-10-17T08:25:24.882Z,17.70
2022-10-17T08:27:52.636Z,17.91
2022-10-17T08:30:21.541Z,17.85
2022-10-17T08:32:49.122Z,17.66
2022-10-17T08:35:16.770Z,17.96
2022-10-17T08:37:44.400Z,18.01
2022-10-17T08:40:18.324Z,18.05
2022-10-17T08:43:05.309Z,17.97
2022-10-17T08:45:39.419Z,17.96
2022-10-17T08:48:12.024Z,18.17
2022-10-17T08:50:44.795Z,18.12
2022-10-17T08:53:19.043Z,18.15
2022-10-17T08:55:48.385Z,18.06
2022-10-17T08:58:18.792Z,18.38
2022-10-17T09:00:55.270Z,18.42
2022-10-17T09:03:39.545Z,18.59
2022-10-17T09:06:18.819Z,18.58
2022-10-17T09:08:58.898Z,18.38
2022-10-17T09:11:42.796Z,18.64
2022-10-17T09:14:26.425Z,18.58
2022-10-17T09:17:09.134Z,18.69
2022-10-17T09:19:40.556Z,18.69
2022-10-17T09:22:13.555Z,18.86
2022-10-17T09:24:45.135Z,18.89
2022-10-17T09:27:21.396Z,18.62
2022-10-17T09:29:51.744Z,18.45
2022-10-17T09:32:25.058Z,18.81
2022-10-17T09:34:53.404Z,19.00
2022-10-17T09:37:26.868Z,18.95
2022-10-17T09:39:54.491Z,18.81
2022-10-17T09:42:27.183Z,18.78
2022-10-17T09:45:02.885Z,19.02
2022-10-17T09:47:35.818Z,18.91
2022-10-17T09:50:03.500Z,19.13
2022-10-17T09:52:35.211Z,19.14
2022-10-17T09:55:07.055Z,18.96
2022-10-17T09:57:54.421Z,19.36
2022-10-17T10:00:26.379Z,19.47
2022-10-17T10:03:09.820Z,19.57
2022-10-17T10:05:37.657Z,19.60
2022-10-17T10:08:07.588Z,19.74
2022-10-17T10:10:35.264Z,19.45
2022-10-17T10:13:06.215Z,19.60
2022-10-17T10:15:37.801Z,19.73
2022-10-17T10:21:10.861Z,19.65
2022-10-17T10:23:40.454Z,19.42
2022-10-17T10:26:21.581Z,19.84
2022-10-17T10:29:02.043Z,19.96
2022-10-17T10:31:33.482Z,19.95
2022-10-17T10:34:15.263Z,20.01
2022-10-17T10:36:51.279Z,20.06
2022-10-17T10:39:29.267Z,20.19
2022-10-17T10:41:56.978Z,20.20
2022-10-17T10:44:27.150Z,20.29
2022-10-17T10:47:09.011Z,20.05
2022-10-17T10:49:40.258Z,19.76
2022-10-17T10:52:09.733Z,20.19
2022-10-17T10:54:41.948Z,20.33
2022-10-17T10:57:19.857Z,20.37
2022-10-17T10:59:59.189Z,20.10
2022-10-17T11:02:33.501Z,19.86
2022-10-17T11:05:07.370Z,19.83
2022-10-17T11:07:40.067Z,19.72
2022-10-17T11:10:17.751Z,19.64
2022-10-17T11:12:51.588Z,19.55
2022-10-17T11:15:25.169Z,19.85
2022-10-17T11:17:58.635Z,19.76
2022-10-17T11:20:35.129Z,19.71
2022-10-17T11:23:19.706Z,19.69
2022-10-17T11:25:49.482Z,19.61
2022-10-17T11:28:18.922Z,20.21
2022-10-17T11:30:51.279Z,20.47
2022-10-17T11:33:25.131Z,20.36
2022-10-17T11:35:58.935Z,20.32
2022-10-17T11:38:41.802Z,20.61
2022-10-17T11:41:13.560Z,20.54
2022-10-17T11:43:47.174Z,20.69
2022-10-17T11:46:18.998Z,20.94
2022-10-17T11:48:59.705Z,21.16
2022-10-17T11:54:23.120Z,21.01
2022-10-17T11:56:54.734Z,20.94
2022-10-17T11:59:55.418Z,21.23
2022-10-17T12:02:34.089Z,21.24
2022-10-17T12:05:10.929Z,21.03
2022-10-17T12:07:46.489Z,21.43
2022-10-17T12:10:26.139Z,21.28
2022-10-17T12:12:53.731Z,21.07
2022-10-17T12:15:31.925Z,20.98
2022-10-17T12:18:02.630Z,21.23
2022-10-17T12:20:33.109Z,20.97
2022-10-17T12:23:21.398Z,20.85
2022-10-17T12:25:51.764Z,21.04
2022-10-17T12:28:27.505Z,21.30
2022-10-17T12:31:00.738Z,21.34
2022-10-17T12:33:35.861Z,21.38
2022-10-17T12:36:47.051Z,21.64
2022-10-17T12:39:49.189Z,21.92
2022-10-17T12:42:49.675Z,21.86
2022-10-17T12:45:49.505Z,21.78
2022-10-17T12:48:50.660Z,21.58
2022-10-17T12:51:36.400Z,21.71
2022-10-17T12:54:12.368Z,21.66
2022-10-17T12:56:43.689Z,21.43
2022-10-17T12:59:16.828Z,21.20
2022-10-17T13:01:47.817Z,21.40
2022-10-17T13:04:16.231Z,21.89
2022-10-17T13:06:47.972Z,21.91
2022-10-17T13:09:24.908Z,22.12
2022-10-17T13:11:54.953Z,22.13
2022-10-17T13:14:24.380Z,22.34
2022-10-17T13:16:54.553Z,22.40
2022-10-17T13:19:24.210Z,22.30
2022-10-17T13:21:52.234Z,22.38
2022-10-17T13:24:30.034Z,22.54
2022-10-17T13:26:59.692Z,22.58
2022-10-17T13:29:28.720Z,22.72
2022-10-17T13:32:00.293Z,22.89
2022-10-17T13:34:30.186Z,23.04
2022-10-17T13:37:03.765Z,23.21
2022-10-17T13:39:54.368Z,23.38
2022-10-17T13:42:27.850Z,23.71
2022-10-17T13:44:57.139Z,23.97
2022-10-17T13:47:26.993Z,24.19
2022-10-17T13:49:55.887Z,24.45
2022-10-17T13:52:27.086Z,24.65
2022-10-17T13:54:55.312Z,24.72
2022-10-17T13:57:27.240Z,25.14
2022-10-17T13:59:58.380Z,25.31
2022-10-17T14:02:28.028Z,25.44
2022-10-17T14:05:16.692Z,25.39
2022-10-17T14:08:12.072Z,25.36
2022-10-17T14:10:41.284Z,25.26
2022-10-17T14:13:21.936Z,25.16
2022-10-17T14:15:50.388Z,25.14
2022-10-17T14:18:21.467Z,25.08
2022-10-17T14:21:32.171Z,25.08
2022-10-17T14:23:40.768Z,25.16
2022-10-17T14:26:11.791Z,25.07
2022-10-17T14:28:41.884Z,24.99
2022-10-17T14:31:20.752Z,25.10
2022-10-17T14:33:51.015Z,24.99
2022-10-17T14:36:20.317Z,24.89
2022-10-17T14:38:52.767Z,24.76
2022-10-17T14:44:22.199Z,24.61
2022-10-17T14:46:55.032Z,24.60
2022-10-17T14:49:32.850Z,24.52
2022-10-17T14:52:24.636Z,24.44
2022-10-17T14:54:52.483Z,24.37
2022-10-17T14:57:24.200Z,24.25
2022-10-17T14:59:54.820Z,24.15
2022-10-17T15:02:23.510Z,24.04
2022-10-17T15:04:51.131Z,23.99
2022-10-17T15:07:19.172Z,23.92
2022-10-17T15:09:49.269Z,23.97
2022-10-17T15:12:18.987Z,23.73
2022-10-17T15:14:47.881Z,23.58
2022-10-17T15:17:20.727Z,23.43
2022-10-17T15:19:49.018Z,23.29
2022-10-17T15:22:18.123Z,23.18
2022-10-17T15:24:46.629Z,23.07
2022-10-17T15:27:19.188Z,23.00
2022-10-17T15:29:49.321Z,22.91
2022-10-17T15:32:18.459Z,22.88
2022-10-17T15:34:46.193Z,22.85
2022-10-17T15:37:20.850Z,22.96
2022-10-17T15:39:53.214Z,22.88
2022-10-17T15:42:22.253Z,22.78
2022-10-17T15:44:50.436Z,22.74
2022-10-17T15:47:26.237Z,22.65
2022-10-17T15:49:54.501Z,22.64
2022-10-17T15:52:22.575Z,22.54
2022-10-17T15:54:50.428Z,22.48
2022-10-17T15:57:20.215Z,22.42
2022-10-17T15:59:48.798Z,22.36
2022-10-17T16:02:18.144Z,22.30
2022-10-17T16:04:48.329Z,22.26
2022-10-17T16:07:16.136Z,22.20
2022-10-17T16:09:43.747Z,22.18
2022-10-17T16:12:14.153Z,22.13
2022-10-17T16:14:41.857Z,22.10
2022-10-17T16:17:11.901Z,22.05
2022-10-17T16:19:39.861Z,22.01
2022-10-17T16:22:18.984Z,21.97
2022-10-17T16:24:46.635Z,21.94
2022-10-17T16:27:14.252Z,21.94
2022-10-17T16:29:41.851Z,21.92
2022-10-17T16:32:10.986Z,21.89
2022-10-17T16:34:38.547Z,21.85
2022-10-17T16:37:06.109Z,21.82
2022-10-17T16:39:35.023Z,21.80
2022-10-17T16:42:02.637Z,21.76
2022-10-17T16:44:30.200Z,21.70
2022-10-17T16:46:57.805Z,21.66
2022-10-17T16:49:25.391Z,21.63
2022-10-17T16:51:52.956Z,21.60
2022-10-17T16:54:20.558Z,21.56
2022-10-17T16:56:50.369Z,21.54
2022-10-17T16:59:17.939Z,21.48
2022-10-17T17:01:45.507Z,21.46
2022-10-17T17:04:13.247Z,21.41
2022-10-17T17:06:41.013Z,21.36
2022-10-17T17:09:10.279Z,21.32
2022-10-17T17:11:38.666Z,21.29
2022-10-17T17:14:08.137Z,21.25
2022-10-17T17:16:36.286Z,21.22
2022-10-17T17:19:06.835Z,21.19
2022-10-17T17:21:35.753Z,21.14
2022-10-17T17:24:04.520Z,21.10
2022-10-17T17:26:35.835Z,21.06
2022-10-17T17:29:04.183Z,21.00
2022-10-17T17:31:35.450Z,20.95
2022-10-17T17:34:04.019Z,20.92
2022-10-17T17:36:34.217Z,20.87
2022-10-17T17:39:04.966Z,20.84
2022-10-17T17:41:33.594Z,20.81
2022-10-17T17:44:02.184Z,20.82
2022-10-17T17:46:29.819Z,20.76
2022-10-17T17:48:58.733Z,20.72
2022-10-17T17:51:29.445Z,20.69
2022-10-17T17:53:57.758Z,20.66
2022-10-17T17:56:27.473Z,20.62
2022-10-17T17:58:56.982Z,20.59
2022-10-17T18:01:27.580Z,20.55
2022-10-17T18:03:56.665Z,20.51
2022-10-17T18:06:26.131Z,20.48
2022-10-17T18:08:57.723Z,20.42
2022-10-17T18:11:26.069Z,20.45
2022-10-17T18:13:57.453Z,20.46
2022-10-17T18:16:25.615Z,20.38
2022-10-17T18:18:53.323Z,20.32
2022-10-17T18:21:21.074Z,20.25
2022-10-17T18:23:51.771Z,20.24
2022-10-17T18:26:20.531Z,20.21
2022-10-17T18:28:49.456Z,20.16
2022-10-17T18:31:23.934Z,20.14
2022-10-17T18:33:53.348Z,20.10
2022-10-17T18:36:21.609Z,20.06
2022-10-17T18:38:50.907Z,20.09
2022-10-17T18:41:20.813Z,20.13
2022-10-17T18:43:49.702Z,20.15
2022-10-17T18:46:19.263Z,20.15
2022-10-17T18:48:47.952Z,20.10
2022-10-17T18:51:17.990Z,20.03
2022-10-17T18:53:48.157Z,19.99
2022-10-17T18:56:18.783Z,20.01
2022-10-17T18:58:46.771Z,20.02
2022-10-17T19:01:17.544Z,20.05
2022-10-17T19:03:46.531Z,20.02
2022-10-17T19:06:16.877Z,20.02
2022-10-17T19:08:44.945Z,19.99
2022-10-17T19:11:14.100Z,19.97
2022-10-17T19:13:43.845Z,20.00
2022-10-17T19:16:17.310Z,20.01
2022-10-17T19:18:45.065Z,19.96
2022-10-17T19:21:12.929Z,19.89
2022-10-17T19:23:40.565Z,19.81
2022-10-17T19:26:10.003Z,19.84
2022-10-17T19:28:41.501Z,19.85
2022-10-17T19:31:15.308Z,19.90
2022-10-17T19:33:45.332Z,19.92
2022-10-17T19:36:14.287Z,19.92
2022-10-17T19:38:41.887Z,19.95
2022-10-17T19:41:11.029Z,19.88
2022-10-17T19:43:39.498Z,19.77
2022-10-17T19:46:09.280Z,19.60
2022-10-17T19:48:39.134Z,19.61
2022-10-17T19:51:07.929Z,19.70
2022-10-17T19:53:35.723Z,19.69
2022-10-17T19:56:03.664Z,19.71
2022-10-17T19:58:31.514Z,19.60
2022-10-17T20:01:01.621Z,19.44
2022-10-17T20:03:30.059Z,19.33
2022-10-17T20:05:59.071Z,19.28
2022-10-17T20:11:03.375Z,19.18
2022-10-17T20:13:31.043Z,19.16
2022-10-17T20:15:59.631Z,19.31
2022-10-17T20:18:27.930Z,19.68
2022-10-17T20:20:56.136Z,19.59
2022-10-17T20:23:25.100Z,19.69
2022-10-17T20:26:06.698Z,19.45
2022-10-17T20:28:41.127Z,19.33
2022-10-17T20:31:10.121Z,19.31
2022-10-17T20:33:37.766Z,19.32
2022-10-17T20:36:06.255Z,19.40
2022-10-17T20:38:35.217Z,19.47
2022-10-17T20:41:03.477Z,19.51
2022-10-17T20:43:31.418Z,19.40
2022-10-17T20:46:08.554Z,19.30
2022-10-17T20:48:43.431Z,19.21
2022-10-17T20:51:12.345Z,19.34
2022-10-17T20:53:41.228Z,19.36
2022-10-17T20:56:14.399Z,19.37
2022-10-17T20:58:41.977Z,19.42
2022-10-17T21:01:11.131Z,19.24
2022-10-17T21:03:42.529Z,19.13
2022-10-17T21:06:13.694Z,19.09
2022-10-17T21:08:42.873Z,19.05
2022-10-17T21:11:12.567Z,18.88
2022-10-17T21:13:40.446Z,18.85
2022-10-17T21:16:09.739Z,18.75
2022-10-17T21:18:37.801Z,18.86
2022-10-17T21:21:14.477Z,19.32
2022-10-17T21:23:45.338Z,19.55
2022-10-17T21:26:13.779Z,19.50
2022-10-17T21:28:42.692Z,19.60
2022-10-17T21:31:12.858Z,19.43
2022-10-17T21:33:41.446Z,19.33
2022-10-17T21:36:09.867Z,19.35
2022-10-17T21:38:38.177Z,19.21
2022-10-17T21:41:09.450Z,19.15
2022-10-17T21:43:38.573Z,19.27
2022-10-17T21:46:07.859Z,19.33
2022-10-17T21:48:36.266Z,19.19
2022-10-17T21:51:05.622Z,19.12
2022-10-17T21:53:33.801Z,19.09
2022-10-17T21:56:02.213Z,19.01
2022-10-17T21:58:31.379Z,18.76
2022-10-17T22:01:04.846Z,18.58
2022-10-17T22:03:34.062Z,18.47
2022-10-17T22:06:12.830Z,18.64
2022-10-17T22:08:49.575Z,18.92
2022-10-17T22:11:19.084Z,18.95
2022-10-17T22:13:48.165Z,18.81
2022-10-17T22:16:17.698Z,18.72
2022-10-17T22:18:45.324Z,18.70
2022-10-17T22:21:15.100Z,18.67
2022-10-17T22:23:43.593Z,18.48
2022-10-17T22:26:11.958Z,18.25
2022-10-17T22:28:41.760Z,18.10
2022-10-17T22:31:11.042Z,18.04
2022-10-17T22:33:40.550Z,18.07
2022-10-17T22:36:09.083Z,18.16
2022-10-17T22:38:37.139Z,18.20
2022-10-17T22:41:05.135Z,18.32
2022-10-17T22:43:33.288Z,18.34
2022-10-17T22:46:03.545Z,18.31
2022-10-17T22:48:33.154Z,18.17
2022-10-17T22:51:01.530Z,18.19
2022-10-17T22:53:29.956Z,18.17
2022-10-17T22:55:59.527Z,18.22
2022-10-17T22:58:27.730Z,18.18
2022-10-17T23:00:56.107Z,18.07
2022-10-17T23:03:25.130Z,17.98
2022-10-17T23:05:54.239Z,17.89
2022-10-17T23:08:22.080Z,17.73
2022-10-17T23:10:49.949Z,17.73
2022-10-17T23:13:18.748Z,17.65
2022-10-17T23:15:46.759Z,17.50
2022-10-17T23:18:14.530Z,17.39
2022-10-17T23:20:42.105Z,17.47
2022-10-17T23:23:11.017Z,17.59
2022-10-17T23:25:38.583Z,17.56
2022-10-17T23:28:08.064Z,17.45
2022-10-17T23:30:36.184Z,17.56
2022-10-17T23:33:04.170Z,17.68
2022-10-17T23:35:32.681Z,17.51
2022-10-17T23:38:00.568Z,17.45
2022-10-17T23:40:29.546Z,17.40
2022-10-17T23:42:57.112Z,17.54
2022-10-17T23:45:24.741Z,17.55
2022-10-17T23:47:52.377Z,17.42
2022-10-17T23:50:20.068Z,17.35
2022-10-17T23:52:47.719Z,17.32
2022-10-17T23:55:15.342Z,17.26
2022-10-17T23:57:44.737Z,17.28
